sensor_id;sensor_type;location;lat;lon;timestamp;pressure;altitude;pressure_sealevel;temperature;humidity
12626;BME280;6378;42.684;23.372;2023-07-30T00:02:17;94911.50;;;24.03;97.83
12626;BME280;6378;42.684;23.372;2023-07-30T00:04:44;94899.13;;;23.95;98.85
12626;BME280;6378;42.684;23.372;2023-07-30T00:07:09;94901.13;;;23.94;99.03
12626;BME280;6378;42.684;23.372;2023-07-30T00:09:35;94886.63;;;23.65;100.00
12626;BME280;6378;42.684;23.372;2023-07-30T00:12:01;94894.47;;;23.79;100.00
12626;BME280;6378;42.684;23.372;2023-07-30T00:14:27;94892.84;;;23.65;100.00
12626;BME280;6378;42.684;23.372;2023-07-30T00:16:53;94898.81;;;23.48;100.00
12626;BME280;6378;42.684;23.372;2023-07-30T00:19:18;94814.16;;;22.81;100.00
12626;BME280;6378;42.684;23.372;2023-07-30T00:21:43;94888.78;;;23.25;100.00
12626;BME280;6378;42.684;23.372;2023-07-30T00:24:14;94899.09;;;23.21;100.00
12626;BME280;6378;42.684;23.372;2023-07-30T00:26:40;94893.47;;;22.92;100.00
12626;BME280;6378;42.684;23.372;2023-07-30T00:29:06;94883.63;;;22.78;100.00
12626;BME280;6378;42.684;23.372;2023-07-30T00:31:31;94895.56;;;22.68;100.00
12626;BME280;6378;42.684;23.372;2023-07-30T00:33:57;94875.91;;;22.54;100.00
12626;BME280;6378;42.684;23.372;2023-07-30T00:36:22;94888.44;;;22.55;100.00
12626;BME280;6378;42.684;23.372;2023-07-30T00:38:47;94880.56;;;22.57;100.00
12626;BME280;6378;42.684;23.372;2023-07-30T00:41:13;94888.16;;;22.49;100.00
12626;BME280;6378;42.684;23.372;2023-07-30T00:43:38;94885.91;;;22.44;100.00
12626;BME280;6378;42.684;23.372;2023-07-30T00:46:04;94892.97;;;22.45;100.00
12626;BME280;6378;42.684;23.372;2023-07-30T00:48:29;94877.88;;;22.53;100.00
12626;BME280;6378;42.684;23.372;2023-07-30T00:50:55;94872.91;;;22.48;100.00
12626;BME280;6378;42.684;23.372;2023-07-30T00:53:22;94890.47;;;22.70;100.00
12626;BME280;6378;42.684;23.372;2023-07-30T00:55:49;94860.84;;;22.62;100.00
12626;BME280;6378;42.684;23.372;2023-07-30T00:58:15;94887.72;;;22.70;100.00
12626;BME280;6378;42.684;23.372;2023-07-30T01:00:41;94887.66;;;22.90;100.00
12626;BME280;6378;42.684;23.372;2023-07-30T01:03:06;94887.31;;;22.88;100.00
12626;BME280;6378;42.684;23.372;2023-07-30T01:05:32;94885.84;;;22.83;100.00
12626;BME280;6378;42.684;23.372;2023-07-30T01:07:58;94889.97;;;22.75;100.00
12626;BME280;6378;42.684;23.372;2023-07-30T01:10:24;94860.03;;;22.45;100.00
12626;BME280;6378;42.684;23.372;2023-07-30T01:12:50;94884.22;;;22.50;100.00
12626;BME280;6378;42.684;23.372;2023-07-30T01:15:17;94893.28;;;22.67;100.00
12626;BME280;6378;42.684;23.372;2023-07-30T01:17:42;94876.09;;;22.63;100.00
12626;BME280;6378;42.684;23.372;2023-07-30T01:20:08;94890.38;;;22.74;100.00
12626;BME280;6378;42.684;23.372;2023-07-30T01:22:35;94895.38;;;22.79;100.00
12626;BME280;6378;42.684;23.372;2023-07-30T01:25:01;94891.78;;;22.82;100.00
12626;BME280;6378;42.684;23.372;2023-07-30T01:27:32;94894.53;;;22.82;100.00
12626;BME280;6378;42.684;23.372;2023-07-30T01:30:27;94911.22;;;22.71;100.00
12626;BME280;6378;42.684;23.372;2023-07-30T01:32:53;94867.41;;;22.48;100.00
12626;BME280;6378;42.684;23.372;2023-07-30T01:35:26;94889.94;;;22.39;100.00
12626;BME280;6378;42.684;23.372;2023-07-30T01:37:52;94896.97;;;22.40;100.00
12626;BME280;6378;42.684;23.372;2023-07-30T01:40:19;94893.81;;;22.42;100.00
12626;BME280;6378;42.684;23.372;2023-07-30T01:42:44;94895.78;;;22.41;100.00
12626;BME280;6378;42.684;23.372;2023-07-30T01:45:10;94897.84;;;22.54;100.00
12626;BME280;6378;42.684;23.372;2023-07-30T01:47:35;94902.50;;;22.57;100.00
12626;BME280;6378;42.684;23.372;2023-07-30T01:50:01;94898.44;;;22.45;100.00
12626;BME280;6378;42.684;23.372;2023-07-30T01:52:26;94893.94;;;22.35;100.00
12626;BME280;6378;42.684;23.372;2023-07-30T01:54:51;94891.63;;;22.33;100.00
12626;BME280;6378;42.684;23.372;2023-07-30T01:57:17;94901.97;;;22.26;100.00
12626;BME280;6378;42.684;23.372;2023-07-30T01:59:42;94903.34;;;22.18;100.00
12626;BME280;6378;42.684;23.372;2023-07-30T02:02:08;94886.53;;;22.16;100.00
12626;BME280;6378;42.684;23.372;2023-07-30T02:04:33;94895.94;;;22.15;100.00
12626;BME280;6378;42.684;23.372;2023-07-30T02:06:59;94904.63;;;21.90;100.00
12626;BME280;6378;42.684;23.372;2023-07-30T02:09:24;94885.59;;;21.83;100.00
12626;BME280;6378;42.684;23.372;2023-07-30T02:11:50;94902.28;;;22.12;100.00
12626;BME280;6378;42.684;23.372;2023-07-30T02:14:17;94901.50;;;22.11;100.00
12626;BME280;6378;42.684;23.372;2023-07-30T02:16:43;94900.41;;;22.09;100.00
12626;BME280;6378;42.684;23.372;2023-07-30T02:19:08;94898.41;;;22.09;100.00
12626;BME280;6378;42.684;23.372;2023-07-30T02:21:34;94897.34;;;21.83;100.00
12626;BME280;6378;42.684;23.372;2023-07-30T02:24:02;94906.31;;;21.84;100.00
12626;BME280;6378;42.684;23.372;2023-07-30T02:26:27;94917.13;;;21.71;100.00
12626;BME280;6378;42.684;23.372;2023-07-30T02:28:53;94916.41;;;21.67;100.00
12626;BME280;6378;42.684;23.372;2023-07-30T02:31:18;94913.38;;;21.61;100.00
12626;BME280;6378;42.684;23.372;2023-07-30T02:33:43;94920.44;;;21.39;100.00
12626;BME280;6378;42.684;23.372;2023-07-30T02:36:09;94920.84;;;21.38;100.00
12626;BME280;6378;42.684;23.372;2023-07-30T02:38:34;94914.19;;;21.39;100.00
12626;BME280;6378;42.684;23.372;2023-07-30T02:40:59;94914.47;;;21.21;100.00
12626;BME280;6378;42.684;23.372;2023-07-30T02:43:25;94918.81;;;21.18;100.00
12626;BME280;6378;42.684;23.372;2023-07-30T02:45:50;94922.25;;;21.23;100.00
12626;BME280;6378;42.684;23.372;2023-07-30T02:48:15;94920.94;;;21.31;100.00
12626;BME280;6378;42.684;23.372;2023-07-30T02:50:41;94923.47;;;21.45;100.00
12626;BME280;6378;42.684;23.372;2023-07-30T02:53:07;94922.91;;;21.53;100.00
12626;BME280;6378;42.684;23.372;2023-07-30T02:55:32;94921.75;;;21.54;100.00
12626;BME280;6378;42.684;23.372;2023-07-30T02:57:57;94922.75;;;21.64;100.00
12626;BME280;6378;42.684;23.372;2023-07-30T03:00:23;94890.63;;;21.45;100.00
12626;BME280;6378;42.684;23.372;2023-07-30T03:02:48;94916.91;;;21.62;100.00
12626;BME280;6378;42.684;23.372;2023-07-30T03:05:14;94927.47;;;21.60;100.00
12626;BME280;6378;42.684;23.372;2023-07-30T03:07:39;94925.38;;;21.48;100.00
12626;BME280;6378;42.684;23.372;2023-07-30T03:10:05;94926.22;;;21.45;100.00
12626;BME280;6378;42.684;23.372;2023-07-30T03:12:30;94926.22;;;21.45;100.00
12626;BME280;6378;42.684;23.372;2023-07-30T03:14:56;94936.00;;;21.42;100.00
12626;BME280;6378;42.684;23.372;2023-07-30T03:17:21;94935.84;;;21.30;100.00
12626;BME280;6378;42.684;23.372;2023-07-30T03:19:47;94937.88;;;21.26;100.00
12626;BME280;6378;42.684;23.372;2023-07-30T03:22:12;94930.53;;;21.19;100.00
12626;BME280;6378;42.684;23.372;2023-07-30T03:24:37;94929.75;;;21.18;100.00
12626;BME280;6378;42.684;23.372;2023-07-30T03:27:03;94907.22;;;21.07;100.00
12626;BME280;6378;42.684;23.372;2023-07-30T03:29:28;94928.72;;;21.09;100.00
12626;BME280;6378;42.684;23.372;2023-07-30T03:31:54;94930.75;;;21.05;100.00
12626;BME280;6378;42.684;23.372;2023-07-30T03:34:19;94916.31;;;21.28;100.00
12626;BME280;6378;42.684;23.372;2023-07-30T03:36:45;94934.41;;;21.68;100.00
12626;BME280;6378;42.684;23.372;2023-07-30T03:39:10;94918.03;;;21.65;100.00
12626;BME280;6378;42.684;23.372;2023-07-30T03:41:36;94923.03;;;22.13;100.00
12626;BME280;6378;42.684;23.372;2023-07-30T03:44:01;94910.59;;;22.44;100.00
12626;BME280;6378;42.684;23.372;2023-07-30T03:46:27;94930.81;;;23.38;100.00
12626;BME280;6378;42.684;23.372;2023-07-30T03:48:52;94923.72;;;23.86;100.00
12626;BME280;6378;42.684;23.372;2023-07-30T03:51:18;94927.94;;;24.48;98.62
12626;BME280;6378;42.684;23.372;2023-07-30T03:53:43;94928.25;;;25.17;93.08
12626;BME280;6378;42.684;23.372;2023-07-30T03:56:08;94936.28;;;25.83;85.25
12626;BME280;6378;42.684;23.372;2023-07-30T03:58:34;94941.94;;;26.36;79.23
12626;BME280;6378;42.684;23.372;2023-07-30T04:01:01;94944.03;;;26.76;76.24
12626;BME280;6378;42.684;23.372;2023-07-30T04:03:26;94947.13;;;26.78;74.45
12626;BME280;6378;42.684;23.372;2023-07-30T04:05:52;94945.66;;;27.26;70.77
12626;BME280;6378;42.684;23.372;2023-07-30T04:08:17;94953.19;;;27.74;66.97
12626;BME280;6378;42.684;23.372;2023-07-30T04:10:42;94944.72;;;27.60;66.50
12626;BME280;6378;42.684;23.372;2023-07-30T04:13:08;94950.63;;;28.07;63.59
12626;BME280;6378;42.684;23.372;2023-07-30T04:15:33;94949.56;;;28.41;60.16
12626;BME280;6378;42.684;23.372;2023-07-30T04:17:59;94950.03;;;29.09;57.10
12626;BME280;6378;42.684;23.372;2023-07-30T04:20:24;94947.53;;;29.20;56.14
12626;BME280;6378;42.684;23.372;2023-07-30T04:22:51;94952.44;;;28.65;57.64
12626;BME280;6378;42.684;23.372;2023-07-30T04:25:16;94951.09;;;29.53;54.55
12626;BME280;6378;42.684;23.372;2023-07-30T04:27:42;94957.38;;;29.63;52.99
12626;BME280;6378;42.684;23.372;2023-07-30T04:30:07;94959.47;;;30.25;51.04
12626;BME280;6378;42.684;23.372;2023-07-30T04:32:33;94946.44;;;29.92;51.65
12626;BME280;6378;42.684;23.372;2023-07-30T04:34:58;94959.56;;;29.59;52.29
12626;BME280;6378;42.684;23.372;2023-07-30T04:37:24;94960.72;;;29.43;53.81
12626;BME280;6378;42.684;23.372;2023-07-30T04:39:49;94952.78;;;29.18;54.32
12626;BME280;6378;42.684;23.372;2023-07-30T04:42:14;94955.56;;;29.60;53.24
12626;BME280;6378;42.684;23.372;2023-07-30T04:44:40;94942.72;;;29.95;50.78
12626;BME280;6378;42.684;23.372;2023-07-30T04:47:06;94959.38;;;30.34;49.58
12626;BME280;6378;42.684;23.372;2023-07-30T04:49:32;94966.16;;;30.71;48.47
12626;BME280;6378;42.684;23.372;2023-07-30T04:51:57;94961.75;;;30.65;49.36
12626;BME280;6378;42.684;23.372;2023-07-30T04:54:26;94970.22;;;30.08;50.14
12626;BME280;6378;42.684;23.372;2023-07-30T04:56:51;94964.19;;;29.86;51.52
12626;BME280;6378;42.684;23.372;2023-07-30T04:59:16;94963.63;;;30.05;51.26
12626;BME280;6378;42.684;23.372;2023-07-30T05:01:42;94966.38;;;30.68;47.79
12626;BME280;6378;42.684;23.372;2023-07-30T05:04:08;94967.59;;;30.67;46.04
12626;BME280;6378;42.684;23.372;2023-07-30T05:06:34;94962.28;;;30.39;47.80
12626;BME280;6378;42.684;23.372;2023-07-30T05:08:59;94969.25;;;30.35;47.80
12626;BME280;6378;42.684;23.372;2023-07-30T05:11:25;94968.75;;;29.41;49.53
12626;BME280;6378;42.684;23.372;2023-07-30T05:13:50;94963.34;;;29.47;51.19
12626;BME280;6378;42.684;23.372;2023-07-30T05:16:16;94959.16;;;30.23;48.65
12626;BME280;6378;42.684;23.372;2023-07-30T05:18:41;94957.94;;;30.62;47.52
12626;BME280;6378;42.684;23.372;2023-07-30T05:21:07;94964.47;;;28.53;54.74
12626;BME280;6378;42.684;23.372;2023-07-30T05:23:32;94966.03;;;28.26;58.55
12626;BME280;6378;42.684;23.372;2023-07-30T05:25:57;94954.78;;;28.21;59.11
12626;BME280;6378;42.684;23.372;2023-07-30T05:28:23;94958.00;;;29.34;53.47
12626;BME280;6378;42.684;23.372;2023-07-30T05:30:48;94955.66;;;29.42;52.11
12626;BME280;6378;42.684;23.372;2023-07-30T05:33:13;94949.88;;;28.16;56.54
12626;BME280;6378;42.684;23.372;2023-07-30T05:35:39;94965.25;;;28.44;56.55
12626;BME280;6378;42.684;23.372;2023-07-30T05:38:04;94962.03;;;28.36;56.39
12626;BME280;6378;42.684;23.372;2023-07-30T05:40:29;94964.53;;;29.04;54.73
12626;BME280;6378;42.684;23.372;2023-07-30T05:42:55;94973.75;;;29.10;52.71
12626;BME280;6378;42.684;23.372;2023-07-30T05:45:20;94968.16;;;29.28;53.06
12626;BME280;6378;42.684;23.372;2023-07-30T05:47:46;94972.94;;;28.40;57.34
12626;BME280;6378;42.684;23.372;2023-07-30T05:50:11;94952.94;;;28.36;57.26
12626;BME280;6378;42.684;23.372;2023-07-30T05:52:36;94971.38;;;27.93;60.92
12626;BME280;6378;42.684;23.372;2023-07-30T05:55:02;94976.47;;;28.22;59.96
12626;BME280;6378;42.684;23.372;2023-07-30T05:57:27;94974.94;;;28.30;59.13
12626;BME280;6378;42.684;23.372;2023-07-30T05:59:53;94970.22;;;27.24;64.47
12626;BME280;6378;42.684;23.372;2023-07-30T06:02:20;94966.78;;;28.27;59.54
12626;BME280;6378;42.684;23.372;2023-07-30T06:04:45;94978.03;;;28.32;59.47
12626;BME280;6378;42.684;23.372;2023-07-30T06:07:10;94980.16;;;28.74;57.53
12626;BME280;6378;42.684;23.372;2023-07-30T06:09:36;94941.84;;;28.54;56.25
12626;BME280;6378;42.684;23.372;2023-07-30T06:12:01;94969.38;;;29.36;54.46
12626;BME280;6378;42.684;23.372;2023-07-30T06:14:27;94972.41;;;29.47;53.54
12626;BME280;6378;42.684;23.372;2023-07-30T06:16:53;94976.00;;;29.29;52.52
12626;BME280;6378;42.684;23.372;2023-07-30T06:19:19;94967.06;;;29.67;51.96
12626;BME280;6378;42.684;23.372;2023-07-30T06:21:44;94971.50;;;29.74;51.48
12626;BME280;6378;42.684;23.372;2023-07-30T06:24:10;94969.66;;;29.38;53.97
12626;BME280;6378;42.684;23.372;2023-07-30T06:26:35;94972.53;;;29.86;53.05
12626;BME280;6378;42.684;23.372;2023-07-30T06:29:01;94972.41;;;30.04;50.66
12626;BME280;6378;42.684;23.372;2023-07-30T06:31:26;94966.16;;;30.18;50.00
12626;BME280;6378;42.684;23.372;2023-07-30T06:33:51;94967.78;;;29.77;50.20
12626;BME280;6378;42.684;23.372;2023-07-30T06:36:17;94970.06;;;29.04;51.33
12626;BME280;6378;42.684;23.372;2023-07-30T06:38:42;94965.50;;;29.76;48.51
12626;BME280;6378;42.684;23.372;2023-07-30T06:41:08;94953.16;;;29.44;48.23
12626;BME280;6378;42.684;23.372;2023-07-30T06:43:33;94959.94;;;29.01;50.21
12626;BME280;6378;42.684;23.372;2023-07-30T06:45:58;94954.97;;;29.14;50.67
12626;BME280;6378;42.684;23.372;2023-07-30T06:48:24;94953.78;;;28.97;51.15
12626;BME280;6378;42.684;23.372;2023-07-30T06:50:49;94942.97;;;29.08;50.29
12626;BME280;6378;42.684;23.372;2023-07-30T06:53:15;94943.16;;;29.37;50.42
12626;BME280;6378;42.684;23.372;2023-07-30T06:55:40;94938.47;;;29.19;49.94
12626;BME280;6378;42.684;23.372;2023-07-30T06:58:05;94934.75;;;28.80;49.21
12626;BME280;6378;42.684;23.372;2023-07-30T07:00:31;94936.53;;;29.02;49.16
12626;BME280;6378;42.684;23.372;2023-07-30T07:02:56;94933.00;;;29.01;49.04
12626;BME280;6378;42.684;23.372;2023-07-30T07:05:22;94931.75;;;29.44;48.94
12626;BME280;6378;42.684;23.372;2023-07-30T07:07:48;94930.19;;;29.76;48.46
12626;BME280;6378;42.684;23.372;2023-07-30T07:10:13;94930.63;;;30.22;47.08
12626;BME280;6378;42.684;23.372;2023-07-30T07:12:39;94928.84;;;30.34;46.08
12626;BME280;6378;42.684;23.372;2023-07-30T07:15:05;94926.53;;;29.94;46.25
12626;BME280;6378;42.684;23.372;2023-07-30T07:17:31;94926.84;;;30.10;45.74
12626;BME280;6378;42.684;23.372;2023-07-30T07:19:57;94922.84;;;30.50;45.36
12626;BME280;6378;42.684;23.372;2023-07-30T07:22:22;94915.28;;;30.50;45.52
12626;BME280;6378;42.684;23.372;2023-07-30T07:24:48;94914.09;;;29.89;45.15
12626;BME280;6378;42.684;23.372;2023-07-30T07:27:13;94911.53;;;30.00;46.60
12626;BME280;6378;42.684;23.372;2023-07-30T07:29:38;94906.50;;;30.28;44.07
12626;BME280;6378;42.684;23.372;2023-07-30T07:32:06;94911.03;;;30.02;42.25
12626;BME280;6378;42.684;23.372;2023-07-30T07:34:31;94905.31;;;29.82;41.95
12626;BME280;6378;42.684;23.372;2023-07-30T07:36:57;94905.69;;;29.98;41.45
12626;BME280;6378;42.684;23.372;2023-07-30T07:39:22;94892.91;;;30.30;41.57
12626;BME280;6378;42.684;23.372;2023-07-30T07:41:47;94890.31;;;30.27;41.99
12626;BME280;6378;42.684;23.372;2023-07-30T07:44:13;94906.94;;;30.80;40.72
12626;BME280;6378;42.684;23.372;2023-07-30T07:46:38;94891.25;;;30.77;41.61
12626;BME280;6378;42.684;23.372;2023-07-30T07:49:03;94909.38;;;31.02;40.99
12626;BME280;6378;42.684;23.372;2023-07-30T07:51:29;94879.25;;;30.85;41.48
12626;BME280;6378;42.684;23.372;2023-07-30T07:53:54;94900.34;;;30.63;41.57
12626;BME280;6378;42.684;23.372;2023-07-30T07:56:20;94901.25;;;29.92;41.81
12626;BME280;6378;42.684;23.372;2023-07-30T07:58:45;94889.03;;;30.66;41.71
12626;BME280;6378;42.684;23.372;2023-07-30T08:01:10;94898.75;;;30.32;41.80
12626;BME280;6378;42.684;23.372;2023-07-30T08:03:36;94887.69;;;30.62;41.51
12626;BME280;6378;42.684;23.372;2023-07-30T08:06:01;94872.13;;;31.14;40.59
12626;BME280;6378;42.684;23.372;2023-07-30T08:08:27;94882.31;;;30.87;41.03
12626;BME280;6378;42.684;23.372;2023-07-30T08:10:53;94887.38;;;31.04;40.74
12626;BME280;6378;42.684;23.372;2023-07-30T08:13:19;94882.81;;;30.71;41.12
12626;BME280;6378;42.684;23.372;2023-07-30T08:15:44;94883.91;;;30.94;40.22
12626;BME280;6378;42.684;23.372;2023-07-30T08:18:09;94872.53;;;31.42;39.55
12626;BME280;6378;42.684;23.372;2023-07-30T08:20:36;94882.53;;;31.33;39.78
12626;BME280;6378;42.684;23.372;2023-07-30T08:23:01;94882.19;;;31.61;39.71
12626;BME280;6378;42.684;23.372;2023-07-30T08:25:27;94878.84;;;31.77;38.94
12626;BME280;6378;42.684;23.372;2023-07-30T08:27:52;94875.41;;;31.12;40.94
12626;BME280;6378;42.684;23.372;2023-07-30T08:30:18;94875.44;;;31.53;39.90
12626;BME280;6378;42.684;23.372;2023-07-30T08:32:44;94849.06;;;31.28;40.60
12626;BME280;6378;42.684;23.372;2023-07-30T08:35:09;94861.94;;;31.80;39.40
12626;BME280;6378;42.684;23.372;2023-07-30T08:37:35;94807.78;;;31.81;38.17
12626;BME280;6378;42.684;23.372;2023-07-30T08:40:03;94864.56;;;32.10;39.16
12626;BME280;6378;42.684;23.372;2023-07-30T08:42:29;94863.00;;;31.48;38.52
12626;BME280;6378;42.684;23.372;2023-07-30T08:44:55;94857.41;;;31.28;39.30
12626;BME280;6378;42.684;23.372;2023-07-30T08:47:20;94844.84;;;30.83;37.87
12626;BME280;6378;42.684;23.372;2023-07-30T08:49:46;94851.09;;;31.48;37.74
12626;BME280;6378;42.684;23.372;2023-07-30T08:52:11;94855.09;;;31.81;37.24
12626;BME280;6378;42.684;23.372;2023-07-30T08:54:38;94838.44;;;32.28;36.94
12626;BME280;6378;42.684;23.372;2023-07-30T08:57:05;94853.44;;;32.36;37.01
12626;BME280;6378;42.684;23.372;2023-07-30T08:59:42;94861.25;;;32.32;36.17
12626;BME280;6378;42.684;23.372;2023-07-30T09:02:22;94846.47;;;32.20;36.84
12626;BME280;6378;42.684;23.372;2023-07-30T09:04:53;94813.56;;;31.78;36.43
12626;BME280;6378;42.684;23.372;2023-07-30T09:07:19;94848.84;;;32.58;36.39
12626;BME280;6378;42.684;23.372;2023-07-30T09:09:45;94831.09;;;32.56;36.02
12626;BME280;6378;42.684;23.372;2023-07-30T09:12:14;94834.63;;;32.82;34.54
12626;BME280;6378;42.684;23.372;2023-07-30T09:14:43;94813.78;;;32.72;34.58
12626;BME280;6378;42.684;23.372;2023-07-30T09:17:18;94837.88;;;33.12;33.91
12626;BME280;6378;42.684;23.372;2023-07-30T09:19:43;94836.81;;;33.04;32.54
12626;BME280;6378;42.684;23.372;2023-07-30T09:22:09;94830.72;;;32.17;32.85
12626;BME280;6378;42.684;23.372;2023-07-30T09:24:35;94829.59;;;32.60;33.23
12626;BME280;6378;42.684;23.372;2023-07-30T09:27:03;94798.00;;;32.38;33.88
12626;BME280;6378;42.684;23.372;2023-07-30T09:29:29;94819.63;;;32.74;33.74
12626;BME280;6378;42.684;23.372;2023-07-30T09:31:55;94797.44;;;32.91;33.06
12626;BME280;6378;42.684;23.372;2023-07-30T09:34:22;94818.97;;;33.22;32.79
12626;BME280;6378;42.684;23.372;2023-07-30T09:36:50;94810.63;;;33.27;32.09
12626;BME280;6378;42.684;23.372;2023-07-30T09:39:24;94816.25;;;33.38;30.43
12626;BME280;6378;42.684;23.372;2023-07-30T09:41:53;94803.28;;;33.30;30.03
12626;BME280;6378;42.684;23.372;2023-07-30T09:44:24;94800.38;;;33.13;29.99
12626;BME280;6378;42.684;23.372;2023-07-30T09:46:49;94799.81;;;33.46;29.69
12626;BME280;6378;42.684;23.372;2023-07-30T09:49:16;94801.06;;;33.45;29.31
12626;BME280;6378;42.684;23.372;2023-07-30T09:51:41;94787.59;;;33.38;28.03
12626;BME280;6378;42.684;23.372;2023-07-30T09:54:16;94781.41;;;32.86;29.12
12626;BME280;6378;42.684;23.372;2023-07-30T09:56:42;94790.78;;;33.20;29.45
12626;BME280;6378;42.684;23.372;2023-07-30T09:59:09;94781.69;;;33.25;28.54
12626;BME280;6378;42.684;23.372;2023-07-30T10:01:49;94790.34;;;32.95;30.10
12626;BME280;6378;42.684;23.372;2023-07-30T10:04:15;94789.19;;;33.07;29.96
12626;BME280;6378;42.684;23.372;2023-07-30T10:06:48;94786.19;;;32.74;28.98
12626;BME280;6378;42.684;23.372;2023-07-30T10:09:17;94783.38;;;32.74;29.20
12626;BME280;6378;42.684;23.372;2023-07-30T10:11:45;94790.09;;;32.93;29.45
12626;BME280;6378;42.684;23.372;2023-07-30T10:14:12;94769.75;;;33.24;28.86
12626;BME280;6378;42.684;23.372;2023-07-30T10:16:38;94762.44;;;33.27;29.50
12626;BME280;6378;42.684;23.372;2023-07-30T10:19:04;94762.50;;;33.43;29.41
12626;BME280;6378;42.684;23.372;2023-07-30T10:21:32;94768.59;;;33.42;30.26
12626;BME280;6378;42.684;23.372;2023-07-30T10:24:03;94764.19;;;33.83;29.22
12626;BME280;6378;42.684;23.372;2023-07-30T10:26:33;94747.19;;;33.92;29.17
12626;BME280;6378;42.684;23.372;2023-07-30T10:29:10;94759.09;;;33.87;29.15
12626;BME280;6378;42.684;23.372;2023-07-30T10:31:58;94754.03;;;33.80;28.81
12626;BME280;6378;42.684;23.372;2023-07-30T10:34:27;94751.69;;;33.68;28.26
12626;BME280;6378;42.684;23.372;2023-07-30T10:37:08;94743.97;;;33.40;29.40
12626;BME280;6378;42.684;23.372;2023-07-30T10:39:33;94751.72;;;33.20;29.05
12626;BME280;6378;42.684;23.372;2023-07-30T10:42:00;94737.09;;;32.88;29.70
12626;BME280;6378;42.684;23.372;2023-07-30T10:46:56;94732.81;;;32.92;29.48
12626;BME280;6378;42.684;23.372;2023-07-30T10:49:22;94705.91;;;32.89;30.07
12626;BME280;6378;42.684;23.372;2023-07-30T10:51:48;94736.94;;;33.08;29.94
12626;BME280;6378;42.684;23.372;2023-07-30T10:54:13;94722.63;;;33.32;29.67
12626;BME280;6378;42.684;23.372;2023-07-30T10:56:41;94718.44;;;33.10;29.05
12626;BME280;6378;42.684;23.372;2023-07-30T10:59:07;94711.03;;;32.96;28.97
12626;BME280;6378;42.684;23.372;2023-07-30T11:01:43;94712.81;;;32.99;30.00
12626;BME280;6378;42.684;23.372;2023-07-30T11:04:10;94710.47;;;33.40;29.93
12626;BME280;6378;42.684;23.372;2023-07-30T11:06:37;94710.78;;;33.53;29.18
12626;BME280;6378;42.684;23.372;2023-07-30T11:09:03;94707.47;;;33.49;27.68
12626;BME280;6378;42.684;23.372;2023-07-30T11:11:29;94685.75;;;33.11;28.98
12626;BME280;6378;42.684;23.372;2023-07-30T11:13:56;94693.66;;;33.18;28.87
12626;BME280;6378;42.684;23.372;2023-07-30T11:16:22;94700.69;;;33.14;29.16
12626;BME280;6378;42.684;23.372;2023-07-30T11:18:47;94687.97;;;33.01;29.03
12626;BME280;6378;42.684;23.372;2023-07-30T11:21:15;94683.94;;;33.02;29.20
12626;BME280;6378;42.684;23.372;2023-07-30T11:23:43;94672.81;;;33.14;28.74
12626;BME280;6378;42.684;23.372;2023-07-30T11:26:14;94674.47;;;33.42;28.91
12626;BME280;6378;42.684;23.372;2023-07-30T11:28:41;94665.34;;;33.42;28.53
12626;BME280;6378;42.684;23.372;2023-07-30T11:33:40;94667.13;;;33.45;28.38
12626;BME280;6378;42.684;23.372;2023-07-30T11:36:08;94669.94;;;33.62;28.70
12626;BME280;6378;42.684;23.372;2023-07-30T11:38:35;94654.97;;;33.59;29.21
12626;BME280;6378;42.684;23.372;2023-07-30T11:41:01;94645.53;;;33.40;28.56
12626;BME280;6378;42.684;23.372;2023-07-30T11:43:26;94659.22;;;33.43;27.84
12626;BME280;6378;42.684;23.372;2023-07-30T11:46:19;94657.69;;;33.26;27.86
12626;BME280;6378;42.684;23.372;2023-07-30T11:48:48;94646.31;;;33.40;29.00
12626;BME280;6378;42.684;23.372;2023-07-30T11:51:25;94640.97;;;33.48;28.88
12626;BME280;6378;42.684;23.372;2023-07-30T11:56:21;94642.03;;;33.56;28.32
12626;BME280;6378;42.684;23.372;2023-07-30T11:58:48;94645.81;;;33.53;28.27
12626;BME280;6378;42.684;23.372;2023-07-30T12:01:15;94637.72;;;33.55;27.93
12626;BME280;6378;42.684;23.372;2023-07-30T12:03:41;94626.78;;;33.46;28.43
12626;BME280;6378;42.684;23.372;2023-07-30T12:06:07;94601.63;;;33.29;28.99
12626;BME280;6378;42.684;23.372;2023-07-30T12:08:35;94605.94;;;33.25;29.06
12626;BME280;6378;42.684;23.372;2023-07-30T12:11:05;94621.69;;;33.44;28.81
12626;BME280;6378;42.684;23.372;2023-07-30T12:13:32;94614.59;;;33.49;28.24
12626;BME280;6378;42.684;23.372;2023-07-30T12:15:58;94596.56;;;33.28;28.67
12626;BME280;6378;42.684;23.372;2023-07-30T12:18:24;94577.53;;;33.21;27.08
12626;BME280;6378;42.684;23.372;2023-07-30T12:20:51;94590.88;;;33.00;27.85
12626;BME280;6378;42.684;23.372;2023-07-30T12:23:17;94537.09;;;32.83;28.70
12626;BME280;6378;42.684;23.372;2023-07-30T12:25:43;94593.06;;;32.74;29.16
12626;BME280;6378;42.684;23.372;2023-07-30T12:28:08;94583.22;;;32.36;28.96
12626;BME280;6378;42.684;23.372;2023-07-30T12:30:34;94575.44;;;32.51;29.31
12626;BME280;6378;42.684;23.372;2023-07-30T12:33:02;94584.47;;;32.77;28.64
12626;BME280;6378;42.684;23.372;2023-07-30T12:35:28;94577.09;;;32.69;28.42
12626;BME280;6378;42.684;23.372;2023-07-30T12:37:53;94592.34;;;32.90;29.26
12626;BME280;6378;42.684;23.372;2023-07-30T12:40:18;94583.75;;;32.99;28.03
12626;BME280;6378;42.684;23.372;2023-07-30T12:42:44;94573.81;;;32.81;28.31
12626;BME280;6378;42.684;23.372;2023-07-30T12:45:09;94567.06;;;32.45;28.96
12626;BME280;6378;42.684;23.372;2023-07-30T12:47:35;94561.56;;;32.62;29.55
12626;BME280;6378;42.684;23.372;2023-07-30T12:50:02;94568.28;;;32.87;29.19
12626;BME280;6378;42.684;23.372;2023-07-30T12:52:27;94542.88;;;32.68;29.12
12626;BME280;6378;42.684;23.372;2023-07-30T12:54:53;94535.19;;;32.52;30.29
12626;BME280;6378;42.684;23.372;2023-07-30T12:57:18;94545.59;;;32.57;30.36
12626;BME280;6378;42.684;23.372;2023-07-30T12:59:43;94541.78;;;32.60;28.89
12626;BME280;6378;42.684;23.372;2023-07-30T13:02:09;94550.03;;;32.91;28.88